createdAt,value
2022-10-06T00:02:24.649Z,20.90
2022-10-06T00:04:51.375Z,20.89
2022-10-06T00:07:18.164Z,20.87
2022-10-06T00:09:44.820Z,20.82
2022-10-06T00:12:11.620Z,20.63
2022-10-06T00:14:38.228Z,20.82
2022-10-06T00:17:05.231Z,20.87
2022-10-06T00:19:31.945Z,21.02
2022-10-06T00:21:58.646Z,21.05
2022-10-06T00:24:25.244Z,20.84
2022-10-06T00:26:54.775Z,21.08
2022-10-06T00:29:21.751Z,20.95
2022-10-06T00:31:48.443Z,21.09
2022-10-06T00:34:15.070Z,21.14
2022-10-06T00:36:41.748Z,20.95
2022-10-06T00:39:08.388Z,21.05
2022-10-06T00:41:35.178Z,21.05
2022-10-06T00:44:01.846Z,21.09
2022-10-06T00:46:41.006Z,21.07
2022-10-06T00:49:36.205Z,21.10
2022-10-06T00:52:08.756Z,21.06
2022-10-06T00:54:36.446Z,20.95
2022-10-06T00:57:04.451Z,21.02
2022-10-06T00:59:31.156Z,21.03
2022-10-06T01:02:03.644Z,21.11
2022-10-06T01:04:36.858Z,21.00
2022-10-06T01:07:03.890Z,21.11
2022-10-06T01:09:31.589Z,21.07
2022-10-06T01:12:04.135Z,21.10
2022-10-06T01:14:31.459Z,20.80
2022-10-06T01:17:04.159Z,20.76
2022-10-06T01:19:52.484Z,20.63
2022-10-06T01:22:35.341Z,20.76
2022-10-06T01:25:04.306Z,20.73
2022-10-06T01:27:33.841Z,20.65
2022-10-06T01:30:01.291Z,20.89
2022-10-06T01:32:34.189Z,20.72
2022-10-06T01:35:00.836Z,20.74
2022-10-06T01:37:28.415Z,20.83
2022-10-06T01:39:55.108Z,20.82
2022-10-06T01:42:23.679Z,20.70
2022-10-06T01:44:50.625Z,20.66
2022-10-06T01:47:17.426Z,20.70
2022-10-06T01:49:44.060Z,20.62
2022-10-06T01:52:11.314Z,20.65
2022-10-06T01:54:37.981Z,20.46
2022-10-06T01:57:10.569Z,20.53
2022-10-06T01:59:37.943Z,20.54
2022-10-06T02:02:04.748Z,20.51
2022-10-06T02:04:31.591Z,20.55
2022-10-06T02:06:58.926Z,20.57
2022-10-06T02:09:25.989Z,20.61
2022-10-06T02:11:54.152Z,20.61
2022-10-06T02:14:20.794Z,20.56
2022-10-06T02:16:47.482Z,20.58
2022-10-06T02:19:14.301Z,20.56
2022-10-06T02:21:42.066Z,20.55
2022-10-06T02:24:09.615Z,20.52
2022-10-06T02:26:36.797Z,20.51
2022-10-06T02:29:03.526Z,20.48
2022-10-06T02:31:31.289Z,20.46
2022-10-06T02:33:58.933Z,20.47
2022-10-06T02:36:25.777Z,20.50
2022-10-06T02:38:52.500Z,20.45
2022-10-06T02:41:20.016Z,20.44
2022-10-06T02:43:47.562Z,20.38
2022-10-06T02:46:15.451Z,20.23
2022-10-06T02:48:48.630Z,20.25
2022-10-06T02:51:17.537Z,20.23
2022-10-06T02:53:47.408Z,20.14
2022-10-06T02:56:22.292Z,20.07
2022-10-06T02:58:50.496Z,19.99
2022-10-06T03:01:43.319Z,20.07
2022-10-06T03:04:14.895Z,20.14
2022-10-06T03:06:42.166Z,20.18
2022-10-06T03:09:29.072Z,20.15
2022-10-06T03:11:56.400Z,20.18
2022-10-06T03:14:43.642Z,20.23
2022-10-06T03:17:10.413Z,20.20
2022-10-06T03:19:43.520Z,20.20
2022-10-06T03:22:10.582Z,20.19
2022-10-06T03:24:49.667Z,20.20
2022-10-06T03:27:16.378Z,20.24
2022-10-06T03:29:43.095Z,20.18
2022-10-06T03:32:09.699Z,20.19
2022-10-06T03:34:37.611Z,20.18
2022-10-06T03:37:06.842Z,20.10
2022-10-06T03:39:34.201Z,20.18
2022-10-06T03:42:01.432Z,20.24
2022-10-06T03:44:28.111Z,20.25
2022-10-06T03:46:54.829Z,20.18
2022-10-06T03:49:21.572Z,20.09
2022-10-06T03:51:48.244Z,19.98
2022-10-06T03:54:24.775Z,20.01
2022-10-06T03:56:53.561Z,20.11
2022-10-06T03:59:20.377Z,20.04
2022-10-06T04:01:48.966Z,20.11
2022-10-06T04:04:23.901Z,20.08
2022-10-06T04:06:54.974Z,19.98
2022-10-06T04:09:21.774Z,19.89
2022-10-06T04:11:48.667Z,19.93
2022-10-06T04:14:16.546Z,19.99
2022-10-06T04:16:47.181Z,19.82
2022-10-06T04:19:17.360Z,19.78
2022-10-06T04:21:48.577Z,19.89
2022-10-06T04:24:19.470Z,19.87
2022-10-06T04:26:52.252Z,19.92
2022-10-06T04:29:20.506Z,19.95
2022-10-06T04:31:55.713Z,19.97
2022-10-06T04:34:34.539Z,19.94
2022-10-06T04:37:01.208Z,19.85
2022-10-06T04:39:27.945Z,19.87
2022-10-06T04:41:54.723Z,19.84
2022-10-06T04:44:24.931Z,19.83
2022-10-06T04:46:53.832Z,19.83
2022-10-06T04:49:21.018Z,19.85
2022-10-06T04:51:51.074Z,19.88
2022-10-06T04:54:21.182Z,19.87
2022-10-06T04:56:52.992Z,19.98
2022-10-06T04:59:42.123Z,19.96
2022-10-06T05:02:09.799Z,19.85
2022-10-06T05:04:37.872Z,19.89
2022-10-06T05:07:05.565Z,19.91
2022-10-06T05:09:32.397Z,19.93
2022-10-06T05:12:00.709Z,19.87
2022-10-06T05:14:27.404Z,19.90
2022-10-06T05:16:54.102Z,19.97
2022-10-06T05:19:20.775Z,20.00
2022-10-06T05:21:47.515Z,20.02
2022-10-06T05:24:18.153Z,20.08
2022-10-06T05:26:44.963Z,20.05
2022-10-06T05:29:14.205Z,20.05
2022-10-06T05:31:43.363Z,20.02
2022-10-06T05:34:10.952Z,20.07
2022-10-06T05:36:38.336Z,19.91
2022-10-06T05:39:06.259Z,19.86
2022-10-06T05:41:49.033Z,19.84
2022-10-06T05:44:15.706Z,19.80
2022-10-06T05:46:43.815Z,19.68
2022-10-06T05:49:12.814Z,19.62
2022-10-06T05:51:47.002Z,19.62
2022-10-06T05:54:21.872Z,19.61
2022-10-06T05:56:49.232Z,19.56
2022-10-06T05:59:16.279Z,19.48
2022-10-06T06:01:43.833Z,19.45
2022-10-06T06:04:20.797Z,19.42
2022-10-06T06:06:52.928Z,19.35
2022-10-06T06:09:22.599Z,19.27
2022-10-06T06:11:59.967Z,19.25
2022-10-06T06:14:55.253Z,19.27
2022-10-06T06:17:25.341Z,19.35
2022-10-06T06:19:52.006Z,19.39
2022-10-06T06:22:18.602Z,19.54
2022-10-06T06:24:48.209Z,19.88
2022-10-06T06:27:14.878Z,20.23
2022-10-06T06:29:41.584Z,20.73
2022-10-06T06:32:09.539Z,21.15
2022-10-06T06:34:36.511Z,21.60
2022-10-06T06:37:08.535Z,21.89
2022-10-06T06:39:36.787Z,22.11
2022-10-06T06:42:05.147Z,22.30
2022-10-06T06:44:37.870Z,22.58
2022-10-06T06:47:10.105Z,23.09
2022-10-06T06:49:36.738Z,23.27
2022-10-06T06:52:06.865Z,23.72
2022-10-06T06:54:35.122Z,24.40
2022-10-06T06:57:07.164Z,25.37
2022-10-06T06:59:34.094Z,26.10
2022-10-06T07:02:01.099Z,26.83
2022-10-06T07:04:30.610Z,27.31
2022-10-06T07:06:58.284Z,28.29
2022-10-06T07:09:36.426Z,29.22
2022-10-06T07:12:13.345Z,29.85
2022-10-06T07:15:04.837Z,29.18
2022-10-06T07:17:58.367Z,28.76
2022-10-06T07:20:48.105Z,28.91
2022-10-06T07:23:39.007Z,28.35
2022-10-06T07:26:10.700Z,28.21
2022-10-06T07:28:37.451Z,27.60
2022-10-06T07:31:04.195Z,27.41
2022-10-06T07:33:32.699Z,26.84
2022-10-06T07:36:02.878Z,26.02
2022-10-06T07:38:30.660Z,25.08
2022-10-06T07:43:48.243Z,23.89
2022-10-06T07:46:16.427Z,23.00
2022-10-06T07:48:53.600Z,22.52
2022-10-06T07:51:20.333Z,22.31
2022-10-06T07:53:50.692Z,22.33
2022-10-06T07:56:23.604Z,22.37
2022-10-06T07:58:54.072Z,22.41
2022-10-06T08:01:20.922Z,22.70
2022-10-06T08:03:50.422Z,24.44
2022-10-06T08:06:18.853Z,26.81
2022-10-06T08:08:52.504Z,29.01
2022-10-06T08:11:20.912Z,31.00
2022-10-06T08:13:51.673Z,32.18
2022-10-06T08:16:21.120Z,33.44
2022-10-06T08:18:53.293Z,33.10
2022-10-06T08:21:29.214Z,33.50
2022-10-06T08:23:58.064Z,33.27
2022-10-06T08:26:26.639Z,33.85
2022-10-06T08:28:57.439Z,32.60
2022-10-06T08:31:24.266Z,31.98
2022-10-06T08:33:56.002Z,31.81
2022-10-06T08:36:29.817Z,30.97
2022-10-06T08:38:57.906Z,31.22
2022-10-06T08:41:48.450Z,31.07
2022-10-06T08:44:17.964Z,30.73
2022-10-06T08:46:49.389Z,31.21
2022-10-06T08:49:20.316Z,31.68
2022-10-06T08:51:58.459Z,32.55
2022-10-06T08:54:37.102Z,32.15
2022-10-06T08:57:37.283Z,32.46
2022-10-06T09:00:11.943Z,32.37
2022-10-06T09:02:49.198Z,32.33
2022-10-06T09:05:19.308Z,32.52
2022-10-06T09:08:01.268Z,32.48
2022-10-06T09:10:49.091Z,31.29
2022-10-06T09:13:29.022Z,31.19
2022-10-06T09:16:07.501Z,30.95
2022-10-06T09:19:03.827Z,30.35
2022-10-06T09:21:37.716Z,29.57
2022-10-06T09:24:15.714Z,28.62
2022-10-06T09:26:45.335Z,28.95
2022-10-06T09:29:13.067Z,29.03
2022-10-06T09:31:42.569Z,28.53
2022-10-06T09:34:37.447Z,29.98
2022-10-06T09:37:09.067Z,30.77
2022-10-06T09:39:37.756Z,31.48
2022-10-06T09:42:27.014Z,31.60
2022-10-06T09:45:20.473Z,32.30
2022-10-06T09:47:47.236Z,31.74
2022-10-06T09:50:24.269Z,33.18
2022-10-06T09:53:06.167Z,33.18
2022-10-06T09:55:43.269Z,33.27
2022-10-06T09:58:20.636Z,33.20
2022-10-06T10:00:54.130Z,34.08
2022-10-06T10:03:21.796Z,34.06
2022-10-06T10:05:50.791Z,34.57
2022-10-06T10:08:27.285Z,35.50
2022-10-06T10:11:41.918Z,35.80
2022-10-06T10:14:20.272Z,37.31
2022-10-06T10:16:52.358Z,38.20
2022-10-06T10:19:28.054Z,37.93
2022-10-06T10:21:57.595Z,37.56
2022-10-06T10:24:47.544Z,38.54
2022-10-06T10:27:51.209Z,39.05
2022-10-06T10:30:18.607Z,39.19
2022-10-06T10:33:09.077Z,37.77
2022-10-06T10:35:45.727Z,37.40
2022-10-06T10:38:19.893Z,38.00
2022-10-06T10:40:54.739Z,38.43
2022-10-06T10:43:41.590Z,39.34
2022-10-06T10:46:42.993Z,39.72
2022-10-06T10:49:20.441Z,40.35
2022-10-06T10:52:06.637Z,39.78
2022-10-06T10:54:51.815Z,39.46
2022-10-06T10:57:35.192Z,39.25
2022-10-06T11:00:08.553Z,39.89
2022-10-06T11:02:35.788Z,40.92
2022-10-06T11:05:30.351Z,41.15
2022-10-06T11:08:09.165Z,40.74
2022-10-06T11:10:46.316Z,40.54
2022-10-06T11:13:37.359Z,41.17
2022-10-06T11:16:25.451Z,41.35
2022-10-06T11:19:01.069Z,41.40
2022-10-06T11:21:34.607Z,41.22
2022-10-06T11:24:16.296Z,42.45
2022-10-06T11:27:20.122Z,43.17
2022-10-06T11:30:05.513Z,42.07
2022-10-06T11:33:10.068Z,40.77
2022-10-06T11:35:41.451Z,40.76
2022-10-06T11:38:24.838Z,40.23
2022-10-06T11:41:10.294Z,40.61
2022-10-06T11:43:46.203Z,40.79
2022-10-06T11:46:12.833Z,40.13
2022-10-06T11:48:40.489Z,39.91
2022-10-06T11:51:25.271Z,39.73
2022-10-06T11:53:52.755Z,40.32
2022-10-06T11:56:19.376Z,41.11
2022-10-06T11:58:52.090Z,41.10
2022-10-06T12:01:43.832Z,40.86
2022-10-06T12:04:10.519Z,39.88
2022-10-06T12:06:52.704Z,37.54
2022-10-06T12:09:25.922Z,36.69
2022-10-06T12:12:00.113Z,35.27
2022-10-06T12:17:28.107Z,33.00
2022-10-06T12:20:08.665Z,32.71
2022-10-06T12:22:47.152Z,31.97
2022-10-06T12:25:32.513Z,31.46
2022-10-06T12:28:26.720Z,30.81
2022-10-06T12:31:18.677Z,30.04
2022-10-06T12:33:46.139Z,30.05
2022-10-06T12:36:23.254Z,29.84
2022-10-06T12:39:02.396Z,29.92
2022-10-06T12:42:01.994Z,29.55
2022-10-06T12:44:36.271Z,29.38
2022-10-06T12:47:10.445Z,29.42
2022-10-06T12:49:45.799Z,29.24
2022-10-06T12:52:25.009Z,29.38
2022-10-06T12:55:15.066Z,29.31
2022-10-06T12:57:47.892Z,29.34
2022-10-06T13:00:34.085Z,29.47
2022-10-06T13:03:03.177Z,29.59
2022-10-06T13:05:30.178Z,29.34
2022-10-06T13:07:59.596Z,29.28
2022-10-06T13:10:26.899Z,28.93
2022-10-06T13:12:55.369Z,29.14
2022-10-06T13:15:34.400Z,29.14
2022-10-06T13:18:12.993Z,29.21
2022-10-06T13:20:48.393Z,29.06
2022-10-06T13:23:20.727Z,29.08
2022-10-06T13:25:58.125Z,28.86
2022-10-06T13:28:36.666Z,28.93
2022-10-06T13:31:18.064Z,28.70
2022-10-06T13:33:46.786Z,28.47
2022-10-06T13:36:14.213Z,28.04
2022-10-06T13:38:41.783Z,28.17
2022-10-06T13:41:11.162Z,28.23
2022-10-06T13:43:41.681Z,28.37
2022-10-06T13:46:12.180Z,28.54
2022-10-06T13:48:45.926Z,28.30
2022-10-06T13:51:18.861Z,28.34
2022-10-06T13:53:47.747Z,27.90
2022-10-06T13:56:36.182Z,27.92
2022-10-06T13:59:38.283Z,27.86
2022-10-06T14:02:22.282Z,27.76
2022-10-06T14:05:21.295Z,27.74
2022-10-06T14:07:49.274Z,27.84
2022-10-06T14:10:29.103Z,27.65
2022-10-06T14:12:55.917Z,27.72
2022-10-06T14:15:29.428Z,27.58
2022-10-06T14:18:00.188Z,27.39
2022-10-06T14:20:35.767Z,27.46
2022-10-06T14:23:02.431Z,27.60
2022-10-06T14:25:29.033Z,27.63
2022-10-06T14:27:55.784Z,27.22
2022-10-06T14:30:22.481Z,26.92
2022-10-06T14:32:49.626Z,26.88
2022-10-06T14:35:16.285Z,26.74
2022-10-06T14:37:42.888Z,26.71
2022-10-06T14:40:12.149Z,26.85
2022-10-06T14:42:39.032Z,26.77
2022-10-06T14:45:06.269Z,26.68
2022-10-06T14:47:32.922Z,26.53
2022-10-06T14:49:59.617Z,26.37
2022-10-06T14:52:26.298Z,26.19
2022-10-06T14:54:52.942Z,26.05
2022-10-06T14:57:20.894Z,25.97
2022-10-06T14:59:47.672Z,25.93
2022-10-06T15:02:14.399Z,26.13
2022-10-06T15:04:41.036Z,26.30
2022-10-06T15:07:26.288Z,26.46
2022-10-06T15:09:52.952Z,26.53
2022-10-06T15:12:19.573Z,26.38
2022-10-06T15:14:46.263Z,26.29
2022-10-06T15:17:12.962Z,26.31
2022-10-06T15:19:40.303Z,26.40
2022-10-06T15:22:08.835Z,26.43
2022-10-06T15:24:35.570Z,26.40
2022-10-06T15:27:24.673Z,26.15
2022-10-06T15:29:51.837Z,25.86
2022-10-06T15:32:18.439Z,25.55
2022-10-06T15:34:45.181Z,25.40
2022-10-06T15:37:11.773Z,25.32
2022-10-06T15:39:38.475Z,25.25
2022-10-06T15:42:05.776Z,25.28
2022-10-06T15:44:34.550Z,25.33
2022-10-06T15:47:03.728Z,25.40
2022-10-06T15:49:32.583Z,25.32
2022-10-06T15:52:02.614Z,25.17
2022-10-06T15:54:37.916Z,25.07
2022-10-06T15:57:08.538Z,24.80
2022-10-06T15:59:35.907Z,24.77
2022-10-06T16:02:07.232Z,24.72
2022-10-06T16:04:39.336Z,24.53
2022-10-06T16:07:11.337Z,24.52
2022-10-06T16:09:43.533Z,24.45
2022-10-06T16:12:16.203Z,24.32
2022-10-06T16:14:43.889Z,24.09
2022-10-06T16:17:11.735Z,23.91
2022-10-06T16:19:39.994Z,23.76
2022-10-06T16:22:08.583Z,23.70
2022-10-06T16:24:35.315Z,23.66
2022-10-06T16:27:02.207Z,23.66
2022-10-06T16:29:28.875Z,23.55
2022-10-06T16:31:55.851Z,23.46
2022-10-06T16:34:22.939Z,23.44
2022-10-06T16:36:49.574Z,23.37
2022-10-06T16:39:21.371Z,23.24
2022-10-06T16:41:48.823Z,23.12
2022-10-06T16:44:15.508Z,23.01
2022-10-06T16:46:42.307Z,22.89
2022-10-06T16:49:09.737Z,22.95
2022-10-06T16:51:38.378Z,22.95
2022-10-06T16:54:09.754Z,22.88
2022-10-06T16:56:41.886Z,22.62
2022-10-06T16:59:17.001Z,22.47
2022-10-06T17:01:44.363Z,22.35
2022-10-06T17:04:25.171Z,22.31
2022-10-06T17:06:56.814Z,22.20
2022-10-06T17:09:25.856Z,22.05
2022-10-06T17:11:54.987Z,21.90
2022-10-06T17:14:22.027Z,21.77
2022-10-06T17:16:51.186Z,21.67
2022-10-06T17:19:20.290Z,21.60
2022-10-06T17:21:49.619Z,21.49
2022-10-06T17:24:18.976Z,21.41
2022-10-06T17:26:48.389Z,21.37
2022-10-06T17:29:18.747Z,21.27
2022-10-06T17:31:46.321Z,21.11
2022-10-06T17:34:20.020Z,20.97
2022-10-06T17:36:48.963Z,20.93
2022-10-06T17:39:18.109Z,20.95
2022-10-06T17:41:45.745Z,20.91
2022-10-06T17:44:18.767Z,20.93
2022-10-06T17:46:45.533Z,20.85
2022-10-06T17:49:14.974Z,20.77
2022-10-06T17:51:45.133Z,20.61
2022-10-06T17:54:16.933Z,20.53
2022-10-06T17:56:44.612Z,20.44
2022-10-06T17:59:17.660Z,20.31
2022-10-06T18:01:44.815Z,20.26
2022-10-06T18:04:15.504Z,20.27
2022-10-06T18:06:43.484Z,20.22
2022-10-06T18:09:10.432Z,20.08
2022-10-06T18:11:41.942Z,20.07
2022-10-06T18:14:20.183Z,19.98
2022-10-06T18:16:56.623Z,19.96
2022-10-06T18:19:35.391Z,19.91
2022-10-06T18:22:10.295Z,19.89
2022-10-06T18:24:37.725Z,19.88
2022-10-06T18:27:06.223Z,19.84
2022-10-06T18:29:36.001Z,19.75
2022-10-06T18:37:36.611Z,19.66
2022-10-06T18:40:06.448Z,19.58
2022-10-06T18:42:33.125Z,19.44
2022-10-06T18:45:18.506Z,19.28
2022-10-06T18:48:03.823Z,19.16
2022-10-06T18:50:31.046Z,19.02
2022-10-06T18:52:57.837Z,19.00
2022-10-06T18:55:26.293Z,18.90
2022-10-06T18:57:53.208Z,18.89
2022-10-06T19:00:19.857Z,18.93
2022-10-06T19:02:49.265Z,18.86
2022-10-06T19:05:17.386Z,18.88
2022-10-06T19:07:44.892Z,18.86
2022-10-06T19:10:11.992Z,18.77
2022-10-06T19:12:38.907Z,18.61
2022-10-06T19:15:06.043Z,18.57
2022-10-06T19:17:32.793Z,18.51
2022-10-06T19:19:59.424Z,18.42
2022-10-06T19:22:26.094Z,18.39
2022-10-06T19:24:52.931Z,18.34
2022-10-06T19:27:24.951Z,18.32
2022-10-06T19:29:53.967Z,18.32
2022-10-06T19:32:24.640Z,18.31
2022-10-06T19:34:52.156Z,18.28
2022-10-06T19:37:18.970Z,18.21
2022-10-06T19:39:48.018Z,18.11
2022-10-06T19:42:35.658Z,18.04
2022-10-06T19:45:03.675Z,17.93
2022-10-06T19:47:30.350Z,17.86
2022-10-06T19:50:02.130Z,17.87
2022-10-06T19:52:31.328Z,17.85
2022-10-06T19:54:58.814Z,17.87
2022-10-06T19:57:28.641Z,17.78
2022-10-06T19:59:55.278Z,17.65
2022-10-06T20:02:22.746Z,17.54
2022-10-06T20:04:50.385Z,17.50
2022-10-06T20:07:21.390Z,17.47
2022-10-06T20:09:48.630Z,17.46
2022-10-06T20:12:17.819Z,17.38
2022-10-06T20:14:47.554Z,17.40
2022-10-06T20:17:14.219Z,17.25
2022-10-06T20:19:40.798Z,17.16
2022-10-06T20:22:07.469Z,17.07
2022-10-06T20:24:34.121Z,17.08
2022-10-06T20:27:00.747Z,17.07
2022-10-06T20:29:28.107Z,17.12
2022-10-06T20:31:56.665Z,17.16
2022-10-06T20:34:26.739Z,17.16
2022-10-06T20:36:56.238Z,17.07
2022-10-06T20:39:42.106Z,17.06
2022-10-06T20:42:13.918Z,17.01
2022-10-06T20:44:42.220Z,16.86
2022-10-06T20:47:10.198Z,16.73
2022-10-06T20:49:37.195Z,16.68
2022-10-06T20:52:05.665Z,16.62
2022-10-06T20:54:34.779Z,16.61
2022-10-06T20:57:04.907Z,16.61
2022-10-06T20:59:35.016Z,16.55
2022-10-06T21:02:02.281Z,16.49
2022-10-06T21:04:29.196Z,16.41
2022-10-06T21:06:56.070Z,16.29
2022-10-06T21:09:24.219Z,16.16
2022-10-06T21:11:51.023Z,16.08
2022-10-06T21:14:18.112Z,16.18
2022-10-06T21:16:46.921Z,16.20
2022-10-06T21:19:16.635Z,16.24
2022-10-06T21:21:49.743Z,16.22
2022-10-06T21:24:16.748Z,16.14
2022-10-06T21:26:43.628Z,16.05
2022-10-06T21:29:15.416Z,15.93
2022-10-06T21:31:43.297Z,15.94
2022-10-06T21:34:10.395Z,15.90
2022-10-06T21:36:37.624Z,15.90
2022-10-06T21:39:05.677Z,15.92
2022-10-06T21:41:40.676Z,15.78
2022-10-06T21:44:13.196Z,15.82
2022-10-06T21:46:41.508Z,15.87
2022-10-06T21:49:13.767Z,15.78
2022-10-06T21:51:41.620Z,15.72
2022-10-06T21:54:10.369Z,15.69
2022-10-06T21:56:37.634Z,15.69
2022-10-06T21:59:04.670Z,15.63
2022-10-06T22:01:36.875Z,15.62
2022-10-06T22:04:04.425Z,15.66
2022-10-06T22:06:33.175Z,15.70
2022-10-06T22:09:01.191Z,15.68
2022-10-06T22:11:30.621Z,15.70
2022-10-06T22:13:59.802Z,15.64
2022-10-06T22:16:29.305Z,15.55
2022-10-06T22:18:56.893Z,15.42
2022-10-06T22:21:30.110Z,15.40
2022-10-06T22:24:02.032Z,15.44
2022-10-06T22:26:30.892Z,15.39
2022-10-06T22:28:58.643Z,15.37
2022-10-06T22:31:27.239Z,15.34
2022-10-06T22:33:58.976Z,15.29
2022-10-06T22:36:27.251Z,15.30
2022-10-06T22:38:55.283Z,15.23
2022-10-06T22:41:22.504Z,15.22
2022-10-06T22:43:49.304Z,15.33
2022-10-06T22:46:15.960Z,15.27
2022-10-06T22:48:42.634Z,15.30
2022-10-06T22:51:09.272Z,15.19
2022-10-06T22:53:35.919Z,15.10
2022-10-06T22:56:03.891Z,15.04
2022-10-06T22:58:31.056Z,14.88
2022-10-06T23:00:57.787Z,14.77
2022-10-06T23:03:24.706Z,14.78
2022-10-06T23:06:00.028Z,14.81
2022-10-06T23:08:30.161Z,14.87
2022-10-06T23:11:10.314Z,14.98
2022-10-06T23:13:37.372Z,14.96
2022-10-06T23:16:07.742Z,14.88
2022-10-06T23:18:36.737Z,14.82
2022-10-06T23:21:04.150Z,14.74
2022-10-06T23:23:31.237Z,14.65
2022-10-06T23:26:04.060Z,14.55
2022-10-06T23:28:30.799Z,14.54
2022-10-06T23:30:57.462Z,14.54
2022-10-06T23:33:24.091Z,14.59
2022-10-06T23:36:01.312Z,14.57
2022-10-06T23:38:28.363Z,14.64
2022-10-06T23:40:55.305Z,14.64
2022-10-06T23:43:22.994Z,14.63
2022-10-06T23:45:50.237Z,14.61
2022-10-06T23:48:17.115Z,14.57
2022-10-06T23:50:53.955Z,14.54
2022-10-06T23:53:20.563Z,14.47
2022-10-06T23:55:47.307Z,14.38
2022-10-06T23:58:14.682Z,14.27
